Aviation Digital Data Service (ADDS)

Output produced by METARs form (0957 UTC 19 January 2019)
found at http://www.aviationweather.gov/metar/data/
 
KAAF 190953Z AUTO 17007KT 10SM SCT013 17/16 A2999 RMK AO2 SLP154 T01670156
KBOW 190955Z AUTO 00000KT 10SM 09/09 A3005 RMK AO2
KBKV 190953Z AUTO 00000KT 10SM CLR 08/07 A3006 RMK AO2 SLP176 T00830072
KCLW 190955Z AUTO 13004KT 10SM CLR 15/11 A3004 RMK AO2
KCEW 190953Z AUTO 16003KT 6SM BR OVC002 17/17 A2993 RMK AO2 SLP133 T01720167
KCTY 190935Z AUTO 18003KT 10SM OVC070 13/13 A3004 RMK AO2 T01320127
KCGC 190955Z AUTO 00000KT 10SM CLR 08/08 A3006 RMK AO2
KDAB 190953Z 00000KT 10SM SCT100 SCT250 10/09 A3006 RMK AO2 SLP179 T01000094
KDAB 190545Z 1906/2006 00000KT P6SM FEW150 BKN200 
     FM191500 18010KT P6SM FEW040 BKN250 
     FM200000 18005KT P6SM SCT040 SCT120 OVC200 
     FM200400 18011KT P6SM VCSH SCT040 OVC080
       
K54J 190955Z AUTO 16006KT 4SM BR OVC003 17/17 A2994 RMK AO2 T01660165
KDED 190935Z AUTO 00000KT 10SM CLR 10/08 A3006 RMK AO2
KDTS 190953Z AUTO 16007KT 10SM CLR 18/17 A2992 RMK AO2 SLP130 T01780172
KFHB 190935Z AUTO 19005KT 10SM CLR 11/08 A3005 RMK AO2 T01130077
KFXE 190953Z AUTO 00000KT 10SM SCT035 16/16 A3005 RMK AO2 SLP179 T01560156
KFXE 190540Z 1906/2006 00000KT P6SM SKC 
     FM191300 VRB03KT P6SM FEW060 SCT220 
     FM191600 15007KT P6SM FEW080 SCT220 
     FM200200 18005KT P6SM SCT250
       
KFLL 190953Z AUTO 00000KT 10SM FEW032 17/17 A3005 RMK AO2 SLP174 T01720167
KFLL 190540Z 1906/2012 00000KT P6SM SKC 
     FM191100 VRB03KT P6SM FEW025 SCT250 
     FM191500 15012KT P6SM SCT250 
     FM200600 19008KT P6SM BKN250 
     FM200900 21010KT P6SM VCSH SCT050 BKN130
       
KFMY 190953Z AUTO 00000KT 10SM CLR 12/09 A3006 RMK AO2 SLP179 T01170094 $
KFMY 190530Z 1906/2006 VRB03KT P6SM FEW250 
     FM191400 16010KT P6SM FEW035 SCT250 
     FM191800 20012G20KT P6SM SCT040 BKN250
       
KRSW 190953Z AUTO 09003KT 10SM CLR 10/08 A3006 RMK AO2 SLP176 T01000083
KRSW 190530Z 1906/2006 VRB03KT P6SM FEW250 
     FM191400 16010KT P6SM FEW035 SCT250 
     FM191800 20012G20KT P6SM SCT040 BKN250
       
KFPR 190953Z AUTO 00000KT 10SM CLR 09/08 A3006 RMK AO2 SLP179 T00940083
KFPR 190545Z 1906/2006 00000KT P6SM SCT250 
     FM191500 17011KT P6SM FEW040 BKN250 
     FM191800 14014G20KT P6SM SCT045 BKN250 
     FM200000 17010KT P6SM FEW050 SCT120 BKN200
       
KGNV 190953Z AUTO 00000KT 10SM CLR 11/09 A3007 RMK AO2 SLP181 T01060089
KGNV 190520Z 1906/2006 18004KT P6SM SCT100 OVC200 
     FM191400 18010KT P6SM SCT030 BKN200 
     FM191800 19013G22KT P6SM SCT050 OVC250 
     FM192300 20011KT 5SM -SHRA BKN025 OVC050
       
KHWO 190953Z AUTO 00000KT 10SM CLR 16/13 A3007 RMK AO2 SLP182 T01560133
KIMM 190935Z AUTO 00000KT 10SM CLR 10/08 A3007 RMK A01
KINF 190955Z AUTO 00000KT 7SM CLR 07/07 A3006 RMK AO2
KVQQ 190955Z AUTO 00000KT 10SM FEW080 10/09 A3004 RMK AO2
KVQQ 190520Z 1906/2006 18004KT P6SM SCT100 OVC200 
     FM191400 18010KT P6SM SCT030 BKN200 
     FM191800 19013G22KT P6SM SCT040 OVC250 
     FM200100 18011KT P6SM VCSH BKN040 OVC100
       
KCRG 190953Z AUTO 17003KT 10SM CLR 10/06 A3005 RMK AO2 SLP175 T01000061
KCRG 190520Z 1906/2006 18004KT P6SM SCT100 OVC200 
     FM191400 18010KT P6SM SCT030 BKN200 
     FM191800 19013G22KT P6SM SCT040 OVC250 
     FM200100 18011KT P6SM VCSH BKN040 OVC100
       
KHEG 190955Z AUTO 00000KT 10SM SCT080 11/08 A3006 RMK AO2
KJAX 190856Z 14003KT 10SM SCT200 BKN250 10/09 A3005 RMK AO2 SLP176 T01000089 58010
KJAX 190520Z 1906/2006 18004KT P6SM SCT100 OVC200 
     FM191400 18010KT P6SM SCT030 BKN200 
     FM191800 19013G22KT P6SM SCT040 OVC250 
     FM200000 18011KT P6SM VCSH BKN040 OVC100
       
K42J 190955Z AUTO 16005KT 10SM SCT080 11/11 A3004 RMK A01 TSNO
KLCQ 190935Z AUTO 16004KT 10SM BKN075 12/11 A3003 RMK AO2
KLAL 190855Z AUTO 00000KT 10SM CLR 11/08 A3007 RMK AO2
KLAL 190530Z 1906/2006 VRB03KT P6SM SCT250 
     FM191400 16007KT P6SM FEW035 SCT250 
     FM191700 18010G18KT P6SM SCT060 BKN250 
     FM200200 20010G20KT P6SM VCSH BKN050 OVC100 AMD NOT SKED TIL 191200
       
KX07 190955Z AUTO 00000KT 7SM CLR 09/09 A3008 RMK A01
KLEE 190953Z AUTO 00000KT 10SM CLR 12/09 A3007 RMK AO2 SLP180 T01170094
KLEE 190545Z 1906/2006 00000KT P6SM BKN250 
     FM191500 18008KT P6SM FEW040 BKN250 
     FM200200 19011KT P6SM VCSH SCT040 OVC080
       
K24J 190955Z AUTO 00000KT 10SM OVC065 14/11 A3003 RMK A01
KMTH 190953Z AUTO 06004KT 10SM CLR 21/18 A3004 RMK AO2 SLP173 T02060178
KMTH 190527Z 1906/2006 06005KT P6SM FEW030 
     FM191100 13010KT P6SM FEW030 SCT040 
     FM200400 17011KT P6SM SCT025 SCT040
       
KMKY 190956Z AUTO 06003KT 10SM CLR 13/12 A3007 RMK AO2 SLP181 T01280122
KMAI 190953Z AUTO 00000KT 10SM OVC004 16/16 A2996 RMK AO2 SLP144 T01560156
KMLB 190953Z 00000KT 7SM CLR 12/09 A3006 RMK AO2 SLP178 T01170089
KMLB 190545Z 1906/2006 00000KT P6SM BKN250 
     FM191500 18010KT P6SM FEW040 BKN250 
     FM191800 15012G18KT P6SM SCT045 BKN250 
     FM200000 17010KT P6SM FEW050 SCT120 BKN200
       
KTMB 190953Z AUTO 00000KT 10SM CLR 14/14 A3006 RMK AO2 SLP178 T01440139
KTMB 190540Z 1906/2006 00000KT P6SM SKC 
     FM191400 14006KT P6SM FEW250 
     FM191600 14010KT P6SM FEW220 SCT250 
     FM192300 16005KT P6SM SCT250
       
KMIA 190953Z 00000KT 9SM FEW032 FEW250 17/16 A3006 RMK AO2 SLP179 T01720161
KMIA 190540Z 1906/2012 29004KT P6SM FEW025 SCT250 
     FM191400 14005KT P6SM SCT240 
     FM191600 14012KT P6SM SCT250 
     FM200000 15008KT P6SM SCT100 SCT250 
     FM200600 19006KT P6SM SCT100 BKN250 
     FM200900 21008KT P6SM VCSH SCT040 BKN060
       
KOPF 190953Z AUTO 00000KT 10SM CLR 15/13 A3006 RMK AO2 SLP181 T01500133
KOPF 190540Z 1906/2006 00000KT P6SM SKC 
     FM191300 VRB03KT P6SM SCT230 
     FM191500 14010KT P6SM SCT250 
     FM192300 17005KT P6SM SCT250
       
KAPF 190953Z AUTO 00000KT 10SM CLR 13/12 A3005 RMK AO2 SLP176 T01330117 $
KAPF 190540Z 1906/2006 00000KT P6SM SKC 
     FM191400 14005KT P6SM SCT250 
     FM191500 14006KT P6SM SCT220 
     FM191700 16012KT P6SM SCT220 
     FM200000 17008KT P6SM VCSH SCT100 BKN200 
     FM200500 19008KT P6SM VCSH SCT080 BKN150
       
KOCF 190951Z AUTO 00000KT 10SM CLR 09/08 A3006 RMK AO2 SLP183 T00890078 $
KOBE 190935Z AUTO 00000KT 10SM CLR 10/09 A3006 RMK AO2
KORL 190953Z AUTO 00000KT 10SM CLR 12/09 A3006 RMK AO2 SLP184 T01220094
KISM 190956Z AUTO 00000KT 10SM CLR 12/09 A3007 RMK AO2 SLP186 T01170094 PNO $
KISM 190545Z 1906/2006 00000KT P6SM BKN250 
     FM191500 17011KT P6SM FEW040 BKN250 
     FM200300 19010KT P6SM VCSH SCT040 OVC080
       
KMCO 190953Z 00000KT 10SM OVC300 12/09 A3007 RMK AO2 SLP179 T01170094
KMCO 190914Z 1909/2012 00000KT P6SM BKN250 
     FM191500 17011KT P6SM FEW040 BKN250 
     FM200300 19010KT P6SM VCSH SCT040 OVC080 
     FM200600 22012KT P6SM -RA VCTS SCT025CB OVC040 WS020/22035KT
       
KSFB 190953Z AUTO 00000KT 10SM CLR 11/08 A3006 RMK AO2 SLP179 T01060083
KSFB 190545Z 1906/2006 00000KT P6SM BKN250 
     FM191500 18010KT P6SM FEW040 BKN250 
     FM200300 19010KT P6SM VCSH SCT040 OVC080
       
K28J 190955Z AUTO 00000KT 10SM FEW026 A3006 RMK AO2
KECP 190953Z AUTO 13007KT 10SM BKN002 OVC008 18/17 A2993 RMK AO2 SLP148 T01780167
KECP 190533Z 1906/2006 18003KT 1SM BR BKN002 
     FM191200 14008KT 5SM BR OVC035 
     FM191800 15016G25KT 6SM -SHRA VCTS OVC035CB 
     FM192100 16016G25KT 3SM TSRA OVC025CB
       
KPNS 190953Z AUTO 17010KT 10SM OVC015 19/17 A2989 RMK AO2 SLP125 T01890172
KPNS 190527Z 1906/2006 18005KT P6SM SCT025 BKN050 
     FM190800 17006KT 6SM BR OVC015 
     FM191200 17012KT P6SM VCSH OVC015 
     FM191500 18017G22KT 5SM BR VCSH OVC015 WS020/21045KT 
     TEMPO 1920/1924 VRB20G30KT 3SM TSRA OVC015CB 
     FM200000 27020G28KT P6SM OVC015
       
K40J 190935Z AUTO 18003KT 10SM SCT065 OVC075 16/14 A3003 RMK AO2 T01620137
KPCM 190955Z AUTO 14004KT 10SM CLR 14/11 A3007 RMK AO2
KPMP 190953Z AUTO 27003KT 9SM FEW030 SCT037 16/14 A3005 RMK AO2 SLP177 T01610139
KPGD 190953Z AUTO 00000KT 10SM CLR 09/08 A3008 RMK AO2 SLP186 T00940078 $
KPGD 190530Z 1906/2006 VRB03KT P6SM FEW250 
     FM191400 16010KT P6SM FEW035 SCT250 
     FM191800 20012G20KT P6SM SCT040 BKN250
       
K2J9 190955Z AUTO 17005KT 10SM OVC005 16/16 A2998 RMK AO2
KSGJ 190956Z AUTO 22004KT 10SM CLR 12/05 A3007 RMK AO2 SLP181 T01170050
KSGJ 190520Z 1906/2006 18004KT P6SM SCT100 OVC200 
     FM191400 18010KT P6SM SCT030 BKN200 
     FM191800 19013G22KT P6SM SCT040 OVC250 
     FM200200 18011KT P6SM VCSH BKN040 OVC100
       
KSPG 190953Z AUTO 18006KT 10SM CLR 15/12 A3003 RMK AO2 SLP169 T01500117
KPIE 190953Z AUTO 15005KT 10SM CLR 13/11 A3005 RMK AO2 SLP174 T01330111
KPIE 190530Z 1906/2006 VRB03KT P6SM SCT250 
     FM191400 16010KT P6SM FEW035 SCT250 
     FM191700 18014G24KT P6SM SCT040 BKN250 
     FM200200 20018G26KT P6SM VCSH BKN050 OVC100
       
KSRQ 190953Z AUTO 15004KT 10SM CLR 12/09 A3003 RMK AO2 SLP169 T01170089
KSRQ 190530Z 1906/2006 VRB04KT P6SM SCT250 
     FM191400 16010KT P6SM FEW035 SCT250 
     FM191700 19015G25KT P6SM SCT040 BKN250 
     FM200300 20018G26KT P6SM VCSH BKN050 OVC100
       
KSEF 190930Z AUTO 00000KT 10SM CLR 11/10 A3007 RMK AO2 T01140096
KSUA 190955Z AUTO 00000KT 10SM CLR 13/12 A3007 RMK AO2
KSUA 190545Z 1906/2006 00000KT P6SM SCT250 
     FM191500 16011KT P6SM FEW040 BKN250 
     FM191800 14014G20KT P6SM SCT045 BKN250 
     FM200000 17010KT P6SM FEW050 BKN200
       
KTLH 190953Z AUTO 14006KT 5SM BR OVC002 16/16 A2998 RMK AO2 SLP152 T01610161
KTLH 190533Z 1906/2006 19005KT 4SM BR BKN005 
     FM191200 VRB03KT 6SM BR BKN025 
     FM191500 17010KT P6SM SCT050 BKN250 
     FM191800 15016G25KT 6SM -SHRA VCTS BKN035CB 
     FM192200 16016G25KT 4SM TSRA BKN025CB
       
KTPF 190955Z AUTO 17005KT 10SM BKN110 16/13 A3006 RMK AO2
KVDF 190955Z AUTO 00000KT 10SM CLR 09/08 A3006 RMK AO2
KTPA 190953Z 14005KT 10SM FEW320 16/12 A3006 RMK AO2 SLP177 T01560117
KTPA 190853Z 1909/2012 VRB03KT P6SM SCT250 
     FM191400 15008KT P6SM FEW035 SCT250 
     FM191700 18012G20KT P6SM SCT040 BKN250 
     FM200200 20015G22KT P6SM VCSH BKN050 OVC100
       
KTIX 190545Z 1906/2006 00000KT P6SM BKN250 
     FM191500 17011KT P6SM FEW040 BKN250 
     FM200400 19010KT P6SM VCSH SCT040 OVC080 AMD NOT SKED TIL 191200
       
KVNC 190955Z AUTO 11003KT 10SM CLR 11/08 A3006 RMK AO2
KVRB 190953Z AUTO 00000KT 9SM CLR 10/08 A3006 RMK AO2 SLP177 T01000083
KVRB 190545Z 1906/2006 00000KT P6SM SCT250 
     FM191500 17010KT P6SM FEW040 BKN250 
     FM191800 14014G20KT P6SM SCT045 BKN250 
     FM200000 16010KT P6SM FEW050 SCT120 BKN200
       
KLNA 190935Z AUTO 00000KT 10SM CLR 13/13 A3006 RMK AO2 T01320127
KPBI 190953Z 00000KT 10SM FEW250 14/13 A3006 RMK AO2 SLP177 T01390128
KPBI 190540Z 1906/2006 00000KT P6SM SKC 
     FM191300 VRB03KT P6SM FEW120 SCT220 
     FM191600 17006KT P6SM FEW080 SCT220 
     FM191900 15010KT P6SM FEW220 SCT240 
     FM200000 17007KT P6SM FEW220 SCT250
       
KGIF 190953Z AUTO 14003KT 10SM CLR 14/11 A3007 RMK AO2 SLP182 T01440106
KZPH 190955Z AUTO 00000KT 10SM CLR 09/08 A3007 RMK AO2 T00870077 PWINO